createdAt,value
2022-12-08T00:01:51.854Z,87.56
2022-12-08T00:04:19.891Z,87.03
2022-12-08T00:07:05.961Z,86.66
2022-12-08T00:09:38.957Z,86.58
2022-12-08T00:12:12.909Z,86.54
2022-12-08T00:14:42.941Z,86.37
2022-12-08T00:17:12.660Z,86.27
2022-12-08T00:19:41.283Z,86.10
2022-12-08T00:22:10.441Z,85.75
2022-12-08T00:24:39.947Z,85.84
2022-12-08T00:27:09.759Z,85.93
2022-12-08T00:29:38.533Z,85.99
2022-12-08T00:32:06.797Z,85.87
2022-12-08T00:34:34.942Z,85.89
2022-12-08T00:37:02.713Z,85.73
2022-12-08T00:39:30.397Z,86.08
2022-12-08T00:42:13.213Z,85.80
2022-12-08T00:44:42.566Z,86.23
2022-12-08T00:47:11.566Z,86.40
2022-12-08T00:49:39.309Z,86.30
2022-12-08T00:52:07.012Z,86.58
2022-12-08T00:54:34.778Z,86.45
2022-12-08T00:57:02.474Z,86.49
2022-12-08T00:59:30.140Z,86.45
2022-12-08T01:01:57.843Z,86.48
2022-12-08T01:04:25.868Z,86.53
2022-12-08T01:06:53.631Z,86.50
2022-12-08T01:09:21.434Z,86.40
2022-12-08T01:11:49.190Z,86.33
2022-12-08T01:14:17.032Z,86.29
2022-12-08T01:16:45.104Z,86.02
2022-12-08T01:19:14.924Z,86.14
2022-12-08T01:21:44.712Z,86.24
2022-12-08T01:24:13.554Z,86.33
2022-12-08T01:26:41.361Z,85.93
2022-12-08T01:29:10.391Z,85.88
2022-12-08T01:31:38.779Z,85.95
2022-12-08T01:34:08.418Z,86.05
2022-12-08T01:36:39.631Z,85.96
2022-12-08T01:39:12.716Z,85.89
2022-12-08T01:41:40.405Z,85.85
2022-12-08T01:44:11.532Z,85.94
2022-12-08T01:46:44.228Z,86.13
2022-12-08T01:49:31.058Z,86.01
2022-12-08T01:52:00.696Z,85.69
2022-12-08T01:54:33.734Z,85.69
2022-12-08T01:57:21.107Z,85.66
2022-12-08T01:59:56.479Z,85.40
2022-12-08T02:02:29.721Z,85.81
2022-12-08T02:04:57.545Z,85.86
2022-12-08T02:07:25.581Z,86.10
2022-12-08T02:09:54.229Z,86.37
2022-12-08T02:12:22.160Z,86.48
2022-12-08T02:14:49.944Z,86.52
2022-12-08T02:17:32.129Z,86.98
2022-12-08T02:20:37.939Z,86.55
2022-12-08T02:23:22.547Z,86.56
2022-12-08T02:26:09.247Z,86.23
2022-12-08T02:29:05.921Z,86.22
2022-12-08T02:31:55.576Z,86.23
2022-12-08T02:34:26.415Z,85.94
2022-12-08T02:37:02.928Z,85.90
2022-12-08T02:39:43.234Z,86.06
2022-12-08T02:42:21.027Z,86.12
2022-12-08T02:44:55.826Z,86.23
2022-12-08T02:47:26.312Z,86.14
2022-12-08T02:49:55.939Z,86.41
2022-12-08T02:52:23.563Z,86.57
2022-12-08T02:54:58.579Z,86.47
2022-12-08T02:57:47.802Z,86.36
2022-12-08T03:00:19.069Z,86.23
2022-12-08T03:03:14.454Z,85.96
2022-12-08T03:05:54.188Z,85.85
2022-12-08T03:08:32.917Z,85.82
2022-12-08T03:11:21.868Z,85.80
2022-12-08T03:13:52.695Z,85.77
2022-12-08T03:16:24.779Z,85.93
2022-12-08T03:19:06.914Z,86.12
2022-12-08T03:21:36.095Z,86.08
2022-12-08T03:24:07.447Z,86.24
2022-12-08T03:26:44.853Z,86.39
2022-12-08T03:29:13.327Z,86.27
2022-12-08T03:31:48.112Z,86.49
2022-12-08T03:34:17.680Z,86.57
2022-12-08T03:36:45.902Z,86.35
2022-12-08T03:39:14.577Z,86.06
2022-12-08T03:41:42.243Z,85.92
2022-12-08T03:44:09.929Z,85.78
2022-12-08T03:46:37.714Z,85.82
2022-12-08T03:49:05.382Z,85.87
2022-12-08T03:51:33.033Z,85.90
2022-12-08T03:54:00.695Z,86.05
2022-12-08T03:56:31.893Z,86.13
2022-12-08T03:59:00.444Z,86.29
2022-12-08T04:01:28.488Z,86.50
2022-12-08T04:03:56.656Z,86.70
2022-12-08T04:06:24.306Z,86.54
2022-12-08T04:08:52.605Z,86.78
2022-12-08T04:11:20.565Z,86.94
2022-12-08T04:13:48.656Z,86.60
2022-12-08T04:16:19.906Z,86.44
2022-12-08T04:18:47.820Z,86.19
2022-12-08T04:21:15.883Z,85.94
2022-12-08T04:23:43.962Z,85.72
2022-12-08T04:26:12.509Z,85.77
2022-12-08T04:28:40.164Z,85.66
2022-12-08T04:31:07.886Z,85.83
2022-12-08T04:33:35.737Z,85.93
2022-12-08T04:36:05.318Z,86.29
2022-12-08T04:38:33.185Z,86.22
2022-12-08T04:41:01.682Z,86.35
2022-12-08T04:43:29.536Z,86.49
2022-12-08T04:45:57.230Z,86.80
2022-12-08T04:48:26.229Z,86.73
2022-12-08T04:50:53.933Z,86.48
2022-12-08T04:53:21.727Z,86.17
2022-12-08T04:55:49.797Z,85.90
2022-12-08T04:58:19.712Z,85.73
2022-12-08T05:00:47.868Z,85.90
2022-12-08T05:03:16.274Z,85.55
2022-12-08T05:05:44.743Z,85.70
2022-12-08T05:08:12.723Z,85.61
2022-12-08T05:10:40.530Z,85.77
2022-12-08T05:13:08.234Z,85.61
2022-12-08T05:15:35.957Z,86.01
2022-12-08T05:18:06.336Z,86.29
2022-12-08T05:20:34.475Z,86.36
2022-12-08T05:23:02.131Z,86.09
2022-12-08T05:25:29.884Z,86.19
2022-12-08T05:28:17.551Z,85.87
2022-12-08T05:30:45.176Z,85.75
2022-12-08T05:33:12.997Z,85.72
2022-12-08T05:35:40.819Z,85.71
2022-12-08T05:38:09.451Z,85.71
2022-12-08T05:40:39.157Z,85.76
2022-12-08T05:43:07.448Z,86.05
2022-12-08T05:45:35.146Z,86.50
2022-12-08T05:48:02.999Z,86.62
2022-12-08T05:50:30.842Z,86.66
2022-12-08T05:52:58.493Z,86.61
2022-12-08T05:55:26.144Z,86.26
2022-12-08T05:57:53.812Z,86.34
2022-12-08T06:00:21.925Z,86.17
2022-12-08T06:02:49.687Z,86.20
2022-12-08T06:05:17.450Z,86.15
2022-12-08T06:07:45.131Z,86.19
2022-12-08T06:10:12.898Z,86.45
2022-12-08T06:12:40.746Z,87.02
2022-12-08T06:15:08.816Z,87.10
2022-12-08T06:17:36.521Z,87.15
2022-12-08T06:20:05.246Z,87.07
2022-12-08T06:22:33.061Z,86.80
2022-12-08T06:25:00.732Z,86.68
2022-12-08T06:27:28.505Z,86.48
2022-12-08T06:29:56.258Z,86.44
2022-12-08T06:32:27.407Z,86.33
2022-12-08T06:34:55.497Z,86.33
2022-12-08T06:37:23.152Z,86.36
2022-12-08T06:39:51.785Z,86.25
2022-12-08T06:42:38.081Z,86.62
2022-12-08T06:45:06.798Z,86.99
2022-12-08T06:47:34.913Z,87.45
2022-12-08T06:50:03.076Z,87.46
2022-12-08T06:52:31.215Z,87.13
2022-12-08T06:54:58.932Z,86.70
2022-12-08T06:57:26.664Z,86.70
2022-12-08T06:59:54.346Z,86.53
2022-12-08T07:02:22.142Z,86.30
2022-12-08T07:04:51.314Z,86.19
2022-12-08T07:07:18.937Z,86.11
2022-12-08T07:09:46.634Z,86.04
2022-12-08T07:12:14.501Z,86.24
2022-12-08T07:14:42.148Z,86.35
2022-12-08T07:17:09.854Z,86.78
2022-12-08T07:19:37.600Z,87.19
2022-12-08T07:22:05.237Z,87.15
2022-12-08T07:24:33.319Z,86.82
2022-12-08T07:27:00.990Z,86.59
2022-12-08T07:29:28.785Z,86.35
2022-12-08T07:31:56.444Z,86.37
2022-12-08T07:34:24.205Z,86.10
2022-12-08T07:36:51.820Z,85.96
2022-12-08T07:39:19.511Z,85.74
2022-12-08T07:41:47.184Z,85.66
2022-12-08T07:44:14.960Z,85.69
2022-12-08T07:46:42.689Z,85.94
2022-12-08T07:49:10.405Z,86.10
2022-12-08T07:51:38.130Z,86.16
2022-12-08T07:54:05.869Z,86.15
2022-12-08T07:56:33.596Z,86.05
2022-12-08T07:59:02.869Z,86.21
2022-12-08T08:01:32.990Z,86.11
2022-12-08T08:04:04.476Z,85.34
2022-12-08T08:06:33.678Z,84.21
2022-12-08T08:09:01.345Z,82.73
2022-12-08T08:11:29.143Z,82.84
2022-12-08T08:13:57.914Z,82.31
2022-12-08T08:16:25.847Z,81.47
2022-12-08T08:18:54.157Z,80.08
2022-12-08T08:21:45.123Z,79.17
2022-12-08T08:24:09.996Z,78.90
2022-12-08T08:26:37.866Z,78.24
2022-12-08T08:29:05.560Z,78.00
2022-12-08T08:31:33.296Z,75.88
2022-12-08T08:34:05.953Z,76.43
2022-12-08T08:36:34.034Z,78.05
2022-12-08T08:39:02.111Z,75.03
2022-12-08T08:41:29.938Z,76.73
2022-12-08T08:43:57.649Z,73.88
2022-12-08T08:46:25.338Z,76.76
2022-12-08T08:48:53.070Z,76.00
2022-12-08T08:51:21.169Z,75.38
2022-12-08T08:53:48.923Z,75.61
2022-12-08T08:56:22.381Z,74.50
2022-12-08T08:58:51.587Z,74.17
2022-12-08T09:01:30.190Z,72.56
2022-12-08T09:03:58.228Z,72.61
2022-12-08T09:06:28.115Z,70.29
2022-12-08T09:08:56.342Z,69.77
2022-12-08T09:11:24.252Z,71.11
2022-12-08T09:13:53.464Z,72.39
2022-12-08T09:16:21.884Z,71.46
2022-12-08T09:18:50.320Z,71.36
2022-12-08T09:21:22.959Z,73.04
2022-12-08T09:23:52.788Z,72.94
2022-12-08T09:26:24.013Z,72.88
2022-12-08T09:28:53.185Z,73.63
2022-12-08T09:31:22.174Z,73.79
2022-12-08T09:33:52.988Z,74.37
2022-12-08T09:36:21.136Z,75.36
2022-12-08T09:38:50.275Z,76.04
2022-12-08T09:41:22.640Z,76.42
2022-12-08T09:44:21.364Z,76.68
2022-12-08T09:46:52.311Z,76.78
2022-12-08T09:49:28.199Z,77.05
2022-12-08T09:51:56.070Z,76.96
2022-12-08T09:54:34.343Z,77.30
2022-12-08T09:57:11.992Z,77.77
2022-12-08T09:59:41.363Z,77.69
2022-12-08T10:02:26.547Z,78.34
2022-12-08T10:04:56.426Z,78.76
2022-12-08T10:07:43.617Z,79.09
2022-12-08T10:10:33.329Z,79.54
2022-12-08T10:13:26.234Z,80.04
2022-12-08T10:16:29.873Z,79.99
2022-12-08T10:19:10.910Z,80.72
2022-12-08T10:21:40.639Z,80.68
2022-12-08T10:24:13.603Z,80.31
2022-12-08T10:26:41.279Z,80.57
2022-12-08T10:29:13.611Z,80.90
2022-12-08T10:31:42.263Z,81.01
2022-12-08T10:34:19.015Z,81.30
2022-12-08T10:36:58.242Z,81.19
2022-12-08T10:39:31.255Z,81.78
2022-12-08T10:42:22.571Z,82.33
2022-12-08T10:45:08.712Z,82.25
2022-12-08T10:47:41.559Z,81.78
2022-12-08T10:50:15.351Z,81.72
2022-12-08T10:52:43.023Z,81.79
2022-12-08T10:55:17.020Z,81.04
2022-12-08T10:57:45.493Z,80.92
2022-12-08T11:00:18.800Z,80.95
2022-12-08T11:02:57.351Z,80.87
2022-12-08T11:05:29.398Z,81.16
2022-12-08T11:07:57.787Z,81.32
2022-12-08T11:10:43.349Z,81.21
2022-12-08T11:13:22.716Z,81.49
2022-12-08T11:15:51.231Z,81.80
2022-12-08T11:18:22.896Z,82.21
2022-12-08T11:20:59.262Z,81.93
2022-12-08T11:23:29.109Z,82.33
2022-12-08T11:26:04.748Z,82.47
2022-12-08T11:28:32.455Z,82.34
2022-12-08T11:31:06.983Z,82.80
2022-12-08T11:33:34.854Z,83.38
2022-12-08T11:36:08.987Z,83.41
2022-12-08T11:38:42.293Z,83.66
2022-12-08T11:41:18.949Z,83.45
2022-12-08T11:43:58.783Z,83.54
2022-12-08T11:46:51.224Z,83.46
2022-12-08T11:49:20.605Z,84.10
2022-12-08T11:51:54.747Z,83.91
2022-12-08T11:54:34.653Z,83.90
2022-12-08T11:57:05.900Z,84.52
2022-12-08T11:59:41.886Z,84.23
2022-12-08T12:02:14.438Z,84.22
2022-12-08T12:04:49.336Z,84.58
2022-12-08T12:07:39.551Z,84.27
2022-12-08T12:10:35.120Z,84.95
2022-12-08T12:13:40.455Z,84.97
2022-12-08T12:16:21.547Z,85.07
2022-12-08T12:19:16.994Z,84.94
2022-12-08T12:21:50.563Z,84.96
2022-12-08T12:24:27.501Z,85.06
2022-12-08T12:27:08.038Z,85.17
2022-12-08T12:29:38.453Z,85.54
2022-12-08T12:32:10.122Z,85.77
2022-12-08T12:34:48.921Z,85.64
2022-12-08T12:37:21.519Z,85.52
2022-12-08T12:40:03.645Z,85.77
2022-12-08T12:42:40.363Z,85.95
2022-12-08T12:45:17.096Z,85.88
2022-12-08T12:47:56.181Z,85.70
2022-12-08T12:50:33.995Z,85.75
2022-12-08T12:53:10.660Z,86.05
2022-12-08T12:55:55.453Z,86.27
2022-12-08T12:58:29.350Z,86.27
2022-12-08T13:01:15.124Z,86.26
2022-12-08T13:03:47.376Z,86.10
2022-12-08T13:06:23.009Z,85.96
2022-12-08T13:08:53.185Z,85.52
2022-12-08T13:11:21.783Z,85.85
2022-12-08T13:14:04.578Z,85.99
2022-12-08T13:16:37.366Z,85.95
2022-12-08T13:19:12.812Z,86.38
2022-12-08T13:21:40.904Z,86.89
2022-12-08T13:24:17.264Z,86.41
2022-12-08T13:26:49.399Z,86.19
2022-12-08T13:29:25.686Z,86.38
2022-12-08T13:32:00.930Z,85.99
2022-12-08T13:34:45.273Z,86.31
2022-12-08T13:37:15.799Z,85.80
2022-12-08T13:39:51.022Z,85.96
2022-12-08T13:42:27.451Z,86.49
2022-12-08T13:45:48.575Z,86.88
2022-12-08T13:48:30.138Z,86.85
2022-12-08T13:57:35.863Z,86.59
2022-12-08T14:00:15.201Z,86.58
2022-12-08T14:02:48.347Z,86.10
2022-12-08T14:05:23.790Z,86.50
2022-12-08T14:07:57.752Z,86.85
2022-12-08T14:10:28.271Z,86.95
2022-12-08T14:13:00.574Z,87.40
2022-12-08T14:15:32.696Z,87.85
2022-12-08T14:18:05.927Z,86.80
2022-12-08T14:20:57.744Z,87.07
2022-12-08T14:23:23.296Z,86.42
2022-12-08T14:25:50.945Z,86.62
2022-12-08T14:28:18.680Z,86.64
2022-12-08T14:30:49.556Z,86.60
2022-12-08T14:33:17.501Z,86.87
2022-12-08T14:35:51.484Z,86.78
2022-12-08T14:38:21.769Z,86.69
2022-12-08T14:41:07.184Z,86.57
2022-12-08T14:43:34.991Z,86.65
2022-12-08T14:46:06.504Z,86.84
2022-12-08T14:48:34.160Z,86.85
2022-12-08T14:51:04.729Z,86.68
2022-12-08T14:53:40.721Z,86.57
2022-12-08T14:56:24.556Z,86.48
2022-12-08T14:59:04.241Z,86.77
2022-12-08T15:01:33.000Z,86.76
2022-12-08T15:04:28.556Z,86.82
2022-12-08T15:07:20.005Z,87.42
2022-12-08T15:09:50.142Z,87.01
2022-12-08T15:12:27.125Z,87.01
2022-12-08T15:14:56.973Z,87.15
2022-12-08T15:17:39.919Z,87.28
2022-12-08T15:20:33.221Z,86.87
2022-12-08T15:23:02.688Z,86.58
2022-12-08T15:25:30.443Z,86.68
2022-12-08T15:27:58.214Z,87.06
2022-12-08T15:30:29.731Z,87.40
2022-12-08T15:32:57.414Z,87.40
2022-12-08T15:35:25.071Z,87.44
2022-12-08T15:37:52.891Z,87.42
2022-12-08T15:40:22.973Z,87.45
2022-12-08T15:42:50.721Z,87.39
2022-12-08T15:45:18.991Z,87.32
2022-12-08T15:47:46.645Z,87.19
2022-12-08T15:50:16.729Z,87.41
2022-12-08T15:52:44.500Z,87.59
2022-12-08T15:55:19.612Z,87.27
2022-12-08T15:58:45.052Z,87.67
2022-12-08T16:00:55.653Z,87.60
2022-12-08T16:04:13.854Z,87.72
2022-12-08T16:09:13.740Z,87.56
2022-12-08T16:12:07.110Z,87.36
2022-12-08T16:17:25.684Z,87.41
2022-12-08T16:19:53.997Z,87.46
2022-12-08T16:22:52.901Z,87.11
2022-12-08T16:25:20.419Z,87.06
2022-12-08T16:28:01.215Z,86.89
2022-12-08T16:30:31.203Z,86.95
2022-12-08T16:32:58.865Z,86.87
2022-12-08T16:35:26.574Z,86.32
2022-12-08T16:37:54.256Z,86.31
2022-12-08T16:40:22.657Z,86.59
2022-12-08T16:42:50.559Z,86.28
2022-12-08T16:45:25.755Z,86.24
2022-12-08T16:47:56.022Z,86.09
2022-12-08T16:50:32.146Z,86.30
2022-12-08T16:53:02.454Z,86.22
2022-12-08T16:55:30.403Z,86.11
2022-12-08T16:57:58.637Z,86.13
2022-12-08T17:00:28.911Z,85.83
2022-12-08T17:02:58.550Z,85.53
2022-12-08T17:05:26.881Z,85.37
2022-12-08T17:07:55.405Z,85.30
2022-12-08T17:10:26.078Z,85.00
2022-12-08T17:12:54.642Z,85.20
2022-12-08T17:15:25.566Z,85.38
2022-12-08T17:17:53.710Z,85.42
2022-12-08T17:20:24.771Z,85.55
2022-12-08T17:22:58.257Z,86.01
2022-12-08T17:25:26.926Z,85.60
2022-12-08T17:27:56.245Z,85.22
2022-12-08T17:30:24.003Z,84.95
2022-12-08T17:32:52.844Z,84.64
2022-12-08T17:35:20.645Z,84.61
2022-12-08T17:37:48.378Z,84.60
2022-12-08T17:40:16.644Z,84.46
2022-12-08T17:42:44.661Z,84.05
2022-12-08T17:45:12.378Z,84.15
2022-12-08T17:47:39.986Z,84.34
2022-12-08T17:50:08.722Z,84.64
2022-12-08T17:52:36.705Z,85.10
2022-12-08T17:55:04.764Z,85.03
2022-12-08T18:00:36.151Z,84.70
2022-12-08T18:03:02.680Z,84.50
2022-12-08T18:05:30.469Z,84.28
2022-12-08T18:07:57.500Z,84.03
2022-12-08T18:10:23.850Z,83.79
2022-12-08T18:12:50.321Z,84.09
2022-12-08T18:15:18.678Z,84.11
2022-12-08T18:17:45.293Z,84.14
2022-12-08T18:20:12.651Z,84.01
2022-12-08T18:22:40.366Z,84.45
2022-12-08T18:25:07.372Z,84.80
2022-12-08T18:27:37.418Z,84.98
2022-12-08T18:30:11.532Z,85.02
2022-12-08T18:32:37.859Z,84.78
2022-12-08T18:35:04.448Z,84.90
2022-12-08T18:37:30.715Z,84.28
2022-12-08T18:39:57.115Z,84.19
2022-12-08T18:42:23.425Z,83.92
2022-12-08T18:45:06.037Z,84.44
2022-12-08T18:47:34.728Z,84.28
2022-12-08T18:50:01.396Z,84.79
2022-12-08T18:52:32.173Z,85.04
2022-12-08T18:55:07.658Z,84.69
2022-12-08T18:57:37.910Z,85.12
2022-12-08T19:00:09.857Z,85.04
2022-12-08T19:02:38.170Z,85.32
2022-12-08T19:05:06.093Z,85.32
2022-12-08T19:07:32.383Z,84.96
2022-12-08T19:10:00.540Z,85.23
2022-12-08T19:12:27.571Z,85.41
2022-12-08T19:14:54.030Z,85.28
2022-12-08T19:17:20.486Z,85.31
2022-12-08T19:19:46.953Z,85.52
2022-12-08T19:22:13.417Z,85.47
2022-12-08T19:24:39.685Z,85.50
2022-12-08T19:27:06.128Z,85.75
2022-12-08T19:29:32.389Z,85.77
2022-12-08T19:31:59.615Z,85.63
2022-12-08T19:34:26.069Z,85.60
2022-12-08T19:36:52.475Z,85.75
2022-12-08T19:39:41.144Z,85.83
2022-12-08T19:49:03.341Z,85.69
2022-12-08T19:51:31.069Z,85.87
2022-12-08T19:53:58.759Z,85.79
2022-12-08T19:56:26.575Z,85.98
2022-12-08T19:58:54.267Z,85.68
2022-12-08T20:01:21.989Z,85.94
2022-12-08T20:03:49.666Z,86.19
2022-12-08T20:06:18.173Z,86.47
2022-12-08T20:08:50.432Z,86.58
2022-12-08T20:11:18.484Z,86.47
2022-12-08T20:13:47.661Z,86.39
2022-12-08T20:16:16.365Z,86.56
2022-12-08T20:18:44.359Z,86.56
2022-12-08T20:21:12.473Z,86.63
2022-12-08T20:23:40.335Z,86.78
2022-12-08T20:26:09.953Z,86.78
2022-12-08T20:28:38.116Z,86.64
2022-12-08T20:31:06.147Z,86.87
2022-12-08T20:33:33.995Z,86.41
2022-12-08T20:36:04.600Z,86.64
2022-12-08T20:38:32.287Z,86.29
2022-12-08T20:41:00.035Z,86.55
2022-12-08T20:43:27.728Z,86.68
2022-12-08T20:45:55.407Z,86.78
2022-12-08T20:48:23.061Z,87.33
2022-12-08T20:50:52.065Z,87.31
2022-12-08T20:53:19.767Z,87.44
2022-12-08T20:55:47.518Z,87.61
2022-12-08T20:58:15.373Z,87.64
2022-12-08T21:00:43.491Z,87.70
2022-12-08T21:03:12.755Z,87.38
2022-12-08T21:05:41.188Z,87.61
2022-12-08T21:08:08.946Z,87.77
2022-12-08T21:10:42.194Z,87.78
2022-12-08T21:13:11.900Z,87.27
2022-12-08T21:15:39.681Z,87.41
2022-12-08T21:18:07.458Z,88.01
2022-12-08T21:20:35.267Z,87.81
2022-12-08T21:23:02.946Z,87.91
2022-12-08T21:25:30.898Z,88.34
2022-12-08T21:27:58.917Z,88.49
2022-12-08T21:30:26.921Z,88.47
2022-12-08T21:32:54.694Z,88.51
2022-12-08T21:35:22.496Z,87.92
2022-12-08T21:37:50.202Z,88.03
2022-12-08T21:40:18.303Z,87.81
2022-12-08T21:42:46.256Z,87.97
2022-12-08T21:45:16.728Z,88.62
2022-12-08T21:47:46.367Z,88.96
2022-12-08T21:50:14.982Z,89.18
2022-12-08T21:52:45.335Z,89.17
2022-12-08T21:55:14.688Z,88.50
2022-12-08T21:57:43.169Z,88.43
2022-12-08T22:00:15.355Z,88.42
2022-12-08T22:02:43.797Z,88.59
2022-12-08T22:05:11.625Z,88.57
2022-12-08T22:07:40.874Z,88.92
2022-12-08T22:10:10.642Z,89.32
2022-12-08T22:12:38.875Z,89.20
2022-12-08T22:15:08.728Z,89.13
2022-12-08T22:17:41.765Z,88.89
2022-12-08T22:20:12.869Z,88.91
2022-12-08T22:22:40.886Z,88.76
2022-12-08T22:25:11.957Z,88.45
2022-12-08T22:27:40.669Z,88.48
2022-12-08T22:30:09.670Z,88.66
2022-12-08T22:32:37.884Z,88.64
2022-12-08T22:35:05.983Z,88.82
2022-12-08T22:37:33.910Z,88.76
2022-12-08T22:40:01.747Z,89.07
2022-12-08T22:42:29.947Z,89.06
2022-12-08T22:44:57.726Z,88.91
2022-12-08T22:47:25.657Z,88.76
2022-12-08T22:49:53.481Z,88.65
2022-12-08T22:52:21.259Z,88.68
2022-12-08T22:54:49.168Z,88.54
2022-12-08T22:57:17.016Z,88.57
2022-12-08T22:59:44.788Z,88.59
2022-12-08T23:02:12.609Z,88.75
2022-12-08T23:04:40.518Z,88.87
2022-12-08T23:07:08.364Z,88.90
2022-12-08T23:09:36.017Z,88.76
2022-12-08T23:12:04.780Z,88.75
2022-12-08T23:14:32.443Z,88.61
2022-12-08T23:17:00.313Z,88.67
2022-12-08T23:19:28.305Z,88.79
2022-12-08T23:21:56.179Z,88.71
2022-12-08T23:24:24.091Z,89.01
2022-12-08T23:26:51.920Z,89.25
2022-12-08T23:29:19.668Z,89.19
2022-12-08T23:31:47.517Z,89.36
2022-12-08T23:34:15.400Z,89.46
2022-12-08T23:36:43.329Z,89.50
2022-12-08T23:39:11.795Z,89.48
2022-12-08T23:41:39.705Z,89.42
2022-12-08T23:44:09.115Z,89.79
2022-12-08T23:46:36.979Z,89.85
2022-12-08T23:49:04.903Z,89.60
2022-12-08T23:51:32.831Z,89.61
2022-12-08T23:54:00.794Z,89.84
2022-12-08T23:56:30.523Z,89.85
2022-12-08T23:59:00.630Z,89.89
